北海道・東北TAF電文


新千歳(RJCC)
2/26 20h
TAF RJCC 261109Z 2612/2718 35016KT 9999 -SN FEW006 BKN015
TEMPO 2612/2615 0700 SN DRSN VV006
TEMPO 2615/2618 1500 -SN FEW003 BKN006
TEMPO 2618/2621 2000 -SN FEW005 BKN008
TEMPO 2703/2715 35023G33KT=

旭川(RJEC)
2/26 20h
TAF RJEC 261109Z 2612/2718 35014KT 9999 FEW015 BKN030
TEMPO 2612/2614 0700 SHSN VV006
TEMPO 2614/2616 2000 -SHSN FEW005 BKN008=

帯広(RJCB)
2/26 20h
TAF RJCB 261109Z 2612/2718 34013KT 3000 -SN FEW006 BKN015
TEMPO 2612/2621 0700 SN VV006
TEMPO 2621/2700 1500 -SN FEW005 BKN008
BECMG 2700/2703 9999 NSW=

釧路(RJCK)
2/26 14h
TAF RJCK 260510Z 2606/2712 02015KT 3000 -SN FEW004 BKN008 TEMPO
2606/2612 0700 SN VV004 TEMPO 2612/2618 1500 -SN FEW003
BKN005 BECMG 2618/2621 9999 NSW FEW015 BKN030 TEMPO
2700/2706 02022G32KT=

女満別(RJCM)
2/26 14h
TAF RJCM 260510Z 2606/2712 01008KT 7000 -SHSN FEW004 BKN015 TEMPO
2606/2618 0700 SHSN VV004 TEMPO 2618/2700 1500 -SHSN FEW004
BKN006 TEMPO 2700/2703 3000 -SHSN BECMG 2703/2706 36018KT
TEMPO 2706/2712 2000 -SHSN=

函館(RJCH)
2/26 14h
TAF RJCH 260510Z 2606/2712 01006KT 9999 FEW008 BKN015 TEMPO
2606/2612 2000 -SN FEW005 BKN008 TEMPO 2612/2618 1500 -SN
FEW003 BKN005 TEMPO 2618/2700 3000 -SN=

青森(RJSA)
2/26 20h
TAF RJSA 261105Z 2612/2718 01006KT 6000 -SN FEW005 BKN012
TEMPO 2612/2618 0700 SN FEW001 BKN003
TEMPO 2618/2700 1500 -SHSN FEW003 BKN005
TEMPO 2700/2706 3000 -SHSN FEW005 BKN008
BECMG 2712/2715 27005KT=

秋田(RJSK)
2/26 20h
TAF RJSK 261105Z 2612/2718 32010KT 8000 -SHSN FEW008 BKN015
TEMPO 2612/2615 3000 -SHSN FEW005 BKN008
TEMPO 2615/2618 1500 -SHSN FEW003 BKN005
TEMPO 2618/2700 3000 -SHSN FEW005 BKN008=

花巻(RJSI)
2/26 20h
TAF RJSI 261105Z 2612/2718 35020KT 8000 -SN FEW008 BKN015
TEMPO 2612/2615 3000 -SN
TEMPO 2615/2621 35025G35KT 1500 -SN FEW003 BKN008
TEMPO 2621/2703 35025G35KT 3000 -SHSN
BECMG 2712/2715 35008KT=

仙台(RJSS)
2/26 20h
TAF RJSS 261114Z 2612/2718 32025KT 9999 FEW020 BKN040
TEMPO 2612/2621 32030G40KT
TEMPO 2621/2703 34020G30KT
BECMG 2706/2709 34012KT=

福島(RJSF)
2/26 20h
TAF RJSF 261114Z 2612/2718 33020KT 9999 FEW010 SCT020
TEMPO 2612/2621 33028G38KT
TEMPO 2621/2703 33030G40KT=
Copyright(c) 2014 International Meteorological & Oceanographic Consultants Co,.Ltd. All Rights Reserved. Design by http://f-tpl.com